sensor_id;sensor_type;location;lat;lon;timestamp;temperature;humidity
21799;DHT22;24973;47.178;15.316;2022-08-04T00:02:11;17.70;99.90
21799;DHT22;24973;47.178;15.316;2022-08-04T00:05:05;17.50;99.90
21799;DHT22;24973;47.178;15.316;2022-08-04T00:08:04;17.40;99.90
21799;DHT22;24973;47.178;15.316;2022-08-04T00:10:56;17.30;99.90
21799;DHT22;24973;47.178;15.316;2022-08-04T00:13:51;17.30;99.90
21799;DHT22;24973;47.178;15.316;2022-08-04T00:16:45;17.20;99.90
21799;DHT22;24973;47.178;15.316;2022-08-04T00:19:39;17.10;99.90
21799;DHT22;24973;47.178;15.316;2022-08-04T00:22:30;17.10;99.90
21799;DHT22;24973;47.178;15.316;2022-08-04T00:25:19;17.10;99.90
21799;DHT22;24973;47.178;15.316;2022-08-04T00:28:08;17.10;99.90
21799;DHT22;24973;47.178;15.316;2022-08-04T00:30:57;17.00;99.90
21799;DHT22;24973;47.178;15.316;2022-08-04T00:33:47;17.00;99.90
21799;DHT22;24973;47.178;15.316;2022-08-04T00:36:36;17.10;99.90
21799;DHT22;24973;47.178;15.316;2022-08-04T00:39:27;17.10;99.90
21799;DHT22;24973;47.178;15.316;2022-08-04T00:42:34;17.10;99.90
21799;DHT22;24973;47.178;15.316;2022-08-04T00:49:26;17.00;99.90
21799;DHT22;24973;47.178;15.316;2022-08-04T00:53:04;17.00;99.90
21799;DHT22;24973;47.178;15.316;2022-08-04T00:59:38;16.90;99.90
21799;DHT22;24973;47.178;15.316;2022-08-04T01:02:42;16.70;99.90
21799;DHT22;24973;47.178;15.316;2022-08-04T01:05:47;16.60;99.90
21799;DHT22;24973;47.178;15.316;2022-08-04T01:08:54;16.60;99.90
21799;DHT22;24973;47.178;15.316;2022-08-04T01:12:14;16.50;99.90
21799;DHT22;24973;47.178;15.316;2022-08-04T01:15:17;16.50;99.90
21799;DHT22;24973;47.178;15.316;2022-08-04T01:18:08;16.60;99.90
21799;DHT22;24973;47.178;15.316;2022-08-04T01:21:30;16.60;99.90
21799;DHT22;24973;47.178;15.316;2022-08-04T01:24:56;16.60;99.90
21799;DHT22;24973;47.178;15.316;2022-08-04T01:28:11;16.40;99.90
21799;DHT22;24973;47.178;15.316;2022-08-04T01:31:13;16.30;99.90
21799;DHT22;24973;47.178;15.316;2022-08-04T01:34:21;16.30;99.90
21799;DHT22;24973;47.178;15.316;2022-08-04T01:37:14;16.40;99.90
21799;DHT22;24973;47.178;15.316;2022-08-04T01:40:12;16.40;99.90
21799;DHT22;24973;47.178;15.316;2022-08-04T01:43:02;16.40;99.90
21799;DHT22;24973;47.178;15.316;2022-08-04T01:45:57;16.30;99.90
21799;DHT22;24973;47.178;15.316;2022-08-04T01:48:53;16.30;99.90
21799;DHT22;24973;47.178;15.316;2022-08-04T01:51:43;16.20;99.90
21799;DHT22;24973;47.178;15.316;2022-08-04T01:54:36;16.20;99.90
21799;DHT22;24973;47.178;15.316;2022-08-04T01:57:27;16.10;99.90
21799;DHT22;24973;47.178;15.316;2022-08-04T02:00:18;16.00;99.90
21799;DHT22;24973;47.178;15.316;2022-08-04T02:03:08;16.00;99.90
21799;DHT22;24973;47.178;15.316;2022-08-04T02:06:07;16.10;99.90
21799;DHT22;24973;47.178;15.316;2022-08-04T02:09:07;16.10;99.90
21799;DHT22;24973;47.178;15.316;2022-08-04T02:12:03;16.10;99.90
21799;DHT22;24973;47.178;15.316;2022-08-04T02:14:59;16.10;99.90
21799;DHT22;24973;47.178;15.316;2022-08-04T02:17:59;16.10;99.90
21799;DHT22;24973;47.178;15.316;2022-08-04T02:20:56;16.10;99.90
21799;DHT22;24973;47.178;15.316;2022-08-04T02:23:53;16.10;99.90
21799;DHT22;24973;47.178;15.316;2022-08-04T02:26:55;16.10;99.90
21799;DHT22;24973;47.178;15.316;2022-08-04T02:29:50;16.00;99.90
21799;DHT22;24973;47.178;15.316;2022-08-04T02:32:43;16.00;99.90
21799;DHT22;24973;47.178;15.316;2022-08-04T02:35:35;16.00;99.90
21799;DHT22;24973;47.178;15.316;2022-08-04T02:38:34;16.00;99.90
21799;DHT22;24973;47.178;15.316;2022-08-04T02:41:31;16.00;99.90
21799;DHT22;24973;47.178;15.316;2022-08-04T02:44:22;16.10;99.90
21799;DHT22;24973;47.178;15.316;2022-08-04T02:47:11;16.00;99.90
21799;DHT22;24973;47.178;15.316;2022-08-04T02:50:00;15.90;99.90
21799;DHT22;24973;47.178;15.316;2022-08-04T02:52:51;15.80;99.90
21799;DHT22;24973;47.178;15.316;2022-08-04T02:55:43;15.70;99.90
21799;DHT22;24973;47.178;15.316;2022-08-04T02:58:34;15.60;99.90
21799;DHT22;24973;47.178;15.316;2022-08-04T03:01:24;15.60;99.90
21799;DHT22;24973;47.178;15.316;2022-08-04T03:04:21;15.60;99.90
21799;DHT22;24973;47.178;15.316;2022-08-04T03:12:01;15.50;99.90
21799;DHT22;24973;47.178;15.316;2022-08-04T03:15:27;15.60;99.90
21799;DHT22;24973;47.178;15.316;2022-08-04T03:18:53;15.60;99.90
21799;DHT22;24973;47.178;15.316;2022-08-04T03:22:28;15.60;99.90
21799;DHT22;24973;47.178;15.316;2022-08-04T03:29:49;15.60;99.90
21799;DHT22;24973;47.178;15.316;2022-08-04T03:33:34;15.40;99.90
21799;DHT22;24973;47.178;15.316;2022-08-04T03:36:54;15.30;99.90
21799;DHT22;24973;47.178;15.316;2022-08-04T03:40:34;15.30;99.90
21799;DHT22;24973;47.178;15.316;2022-08-04T03:47:27;15.30;99.90
21799;DHT22;24973;47.178;15.316;2022-08-04T03:50:45;15.40;99.90
21799;DHT22;24973;47.178;15.316;2022-08-04T03:57:40;15.40;99.90
21799;DHT22;24973;47.178;15.316;2022-08-04T04:00:43;15.40;99.90
21799;DHT22;24973;47.178;15.316;2022-08-04T04:03:54;15.30;99.90
21799;DHT22;24973;47.178;15.316;2022-08-04T04:07:10;15.30;99.90
21799;DHT22;24973;47.178;15.316;2022-08-04T04:10:29;15.30;99.90
21799;DHT22;24973;47.178;15.316;2022-08-04T04:14:00;15.40;99.90
21799;DHT22;24973;47.178;15.316;2022-08-04T04:17:21;15.50;99.90
21799;DHT22;24973;47.178;15.316;2022-08-04T04:21:14;15.50;99.90
21799;DHT22;24973;47.178;15.316;2022-08-04T04:24:38;15.50;99.90
21799;DHT22;24973;47.178;15.316;2022-08-04T04:27:39;15.40;99.90
21799;DHT22;24973;47.178;15.316;2022-08-04T04:30:44;15.40;99.90
21799;DHT22;24973;47.178;15.316;2022-08-04T04:33:44;15.40;99.90
21799;DHT22;24973;47.178;15.316;2022-08-04T04:36:49;15.40;99.90
21799;DHT22;24973;47.178;15.316;2022-08-04T04:40:02;15.50;99.90
21799;DHT22;24973;47.178;15.316;2022-08-04T04:43:12;15.50;99.90
21799;DHT22;24973;47.178;15.316;2022-08-04T04:46:18;15.50;99.90
21799;DHT22;24973;47.178;15.316;2022-08-04T04:49:19;15.50;99.90
21799;DHT22;24973;47.178;15.316;2022-08-04T04:52:23;15.50;99.90
21799;DHT22;24973;47.178;15.316;2022-08-04T04:55:19;15.60;99.90
21799;DHT22;24973;47.178;15.316;2022-08-04T04:58:11;15.70;99.90
21799;DHT22;24973;47.178;15.316;2022-08-04T05:01:21;15.80;99.90
21799;DHT22;24973;47.178;15.316;2022-08-04T05:05:06;15.90;99.90
21799;DHT22;24973;47.178;15.316;2022-08-04T05:08:31;16.00;99.90
21799;DHT22;24973;47.178;15.316;2022-08-04T05:11:45;16.00;99.90
21799;DHT22;24973;47.178;15.316;2022-08-04T05:14:45;16.10;99.90
21799;DHT22;24973;47.178;15.316;2022-08-04T05:17:39;16.30;99.90
21799;DHT22;24973;47.178;15.316;2022-08-04T05:20:34;16.40;99.90
21799;DHT22;24973;47.178;15.316;2022-08-04T05:23:28;16.60;99.90
21799;DHT22;24973;47.178;15.316;2022-08-04T05:26:24;16.80;99.90
21799;DHT22;24973;47.178;15.316;2022-08-04T05:29:25;16.90;99.90
21799;DHT22;24973;47.178;15.316;2022-08-04T05:32:16;17.10;99.90
21799;DHT22;24973;47.178;15.316;2022-08-04T05:35:10;17.20;99.90
21799;DHT22;24973;47.178;15.316;2022-08-04T05:38:03;17.30;99.90
21799;DHT22;24973;47.178;15.316;2022-08-04T05:40:53;17.40;99.90
21799;DHT22;24973;47.178;15.316;2022-08-04T05:43:43;17.50;99.90
21799;DHT22;24973;47.178;15.316;2022-08-04T05:46:34;17.60;99.90
21799;DHT22;24973;47.178;15.316;2022-08-04T05:49:25;17.70;99.90
21799;DHT22;24973;47.178;15.316;2022-08-04T05:52:16;17.80;99.90
21799;DHT22;24973;47.178;15.316;2022-08-04T05:55:06;17.90;99.90
21799;DHT22;24973;47.178;15.316;2022-08-04T05:57:59;18.10;99.90
21799;DHT22;24973;47.178;15.316;2022-08-04T06:00:50;18.30;99.90
21799;DHT22;24973;47.178;15.316;2022-08-04T06:03:43;18.40;99.90
21799;DHT22;24973;47.178;15.316;2022-08-04T06:06:34;18.60;99.90
21799;DHT22;24973;47.178;15.316;2022-08-04T06:09:23;18.80;99.90
21799;DHT22;24973;47.178;15.316;2022-08-04T06:12:15;19.00;99.90
21799;DHT22;24973;47.178;15.316;2022-08-04T06:15:07;19.20;99.90
21799;DHT22;24973;47.178;15.316;2022-08-04T06:18:00;19.40;99.90
21799;DHT22;24973;47.178;15.316;2022-08-04T06:20:53;19.60;99.90
21799;DHT22;24973;47.178;15.316;2022-08-04T06:23:44;19.80;99.90
21799;DHT22;24973;47.178;15.316;2022-08-04T06:26:35;20.00;99.90
21799;DHT22;24973;47.178;15.316;2022-08-04T06:29:25;20.10;99.90
21799;DHT22;24973;47.178;15.316;2022-08-04T06:32:20;20.30;99.90
21799;DHT22;24973;47.178;15.316;2022-08-04T06:35:19;20.50;99.90
21799;DHT22;24973;47.178;15.316;2022-08-04T06:38:10;20.70;99.90
21799;DHT22;24973;47.178;15.316;2022-08-04T06:40:59;20.90;99.90
21799;DHT22;24973;47.178;15.316;2022-08-04T06:43:51;21.10;99.90
21799;DHT22;24973;47.178;15.316;2022-08-04T06:46:40;21.30;99.90
21799;DHT22;24973;47.178;15.316;2022-08-04T06:49:30;21.50;99.90
21799;DHT22;24973;47.178;15.316;2022-08-04T06:52:19;21.60;99.90
21799;DHT22;24973;47.178;15.316;2022-08-04T06:55:10;21.80;99.90
21799;DHT22;24973;47.178;15.316;2022-08-04T06:58:01;22.00;99.90
21799;DHT22;24973;47.178;15.316;2022-08-04T07:00:50;22.10;99.90
21799;DHT22;24973;47.178;15.316;2022-08-04T07:03:39;22.30;99.90
21799;DHT22;24973;47.178;15.316;2022-08-04T07:06:28;22.50;99.90
21799;DHT22;24973;47.178;15.316;2022-08-04T07:09:18;22.60;99.90
21799;DHT22;24973;47.178;15.316;2022-08-04T07:12:08;22.80;99.90
21799;DHT22;24973;47.178;15.316;2022-08-04T07:14:58;22.90;99.90
21799;DHT22;24973;47.178;15.316;2022-08-04T07:17:48;23.10;99.90
21799;DHT22;24973;47.178;15.316;2022-08-04T07:20:40;23.30;99.90
21799;DHT22;24973;47.178;15.316;2022-08-04T07:23:29;23.50;99.90
21799;DHT22;24973;47.178;15.316;2022-08-04T07:26:19;23.60;99.90
21799;DHT22;24973;47.178;15.316;2022-08-04T07:29:10;23.90;99.90
21799;DHT22;24973;47.178;15.316;2022-08-04T07:31:59;24.00;99.90
21799;DHT22;24973;47.178;15.316;2022-08-04T07:34:49;24.20;99.90
21799;DHT22;24973;47.178;15.316;2022-08-04T07:37:38;24.40;99.90
21799;DHT22;24973;47.178;15.316;2022-08-04T07:40:28;24.60;99.90
21799;DHT22;24973;47.178;15.316;2022-08-04T07:43:17;24.80;99.90
21799;DHT22;24973;47.178;15.316;2022-08-04T07:46:09;25.00;99.90
21799;DHT22;24973;47.178;15.316;2022-08-04T07:48:59;25.10;99.90
21799;DHT22;24973;47.178;15.316;2022-08-04T07:51:48;25.30;99.90
21799;DHT22;24973;47.178;15.316;2022-08-04T07:54:38;25.40;99.90
21799;DHT22;24973;47.178;15.316;2022-08-04T07:57:28;25.50;99.90
21799;DHT22;24973;47.178;15.316;2022-08-04T08:00:17;25.60;99.90
21799;DHT22;24973;47.178;15.316;2022-08-04T08:03:07;25.70;99.90
21799;DHT22;24973;47.178;15.316;2022-08-04T08:05:56;25.80;99.90
21799;DHT22;24973;47.178;15.316;2022-08-04T08:08:45;25.80;99.90
21799;DHT22;24973;47.178;15.316;2022-08-04T08:11:34;25.90;99.90
21799;DHT22;24973;47.178;15.316;2022-08-04T08:14:23;26.00;99.90
21799;DHT22;24973;47.178;15.316;2022-08-04T08:17:13;26.20;99.90
21799;DHT22;24973;47.178;15.316;2022-08-04T08:20:05;26.40;99.90
21799;DHT22;24973;47.178;15.316;2022-08-04T08:22:54;26.50;99.90
21799;DHT22;24973;47.178;15.316;2022-08-04T08:25:44;26.60;99.70
21799;DHT22;24973;47.178;15.316;2022-08-04T08:28:32;26.80;99.40
21799;DHT22;24973;47.178;15.316;2022-08-04T08:31:21;27.00;98.70
21799;DHT22;24973;47.178;15.316;2022-08-04T08:34:12;27.20;98.40
21799;DHT22;24973;47.178;15.316;2022-08-04T08:37:11;27.30;96.70
21799;DHT22;24973;47.178;15.316;2022-08-04T08:40:18;27.50;95.90
21799;DHT22;24973;47.178;15.316;2022-08-04T08:43:35;27.60;93.60
21799;DHT22;24973;47.178;15.316;2022-08-04T08:46:45;27.80;93.80
21799;DHT22;24973;47.178;15.316;2022-08-04T08:50:11;28.00;93.60
21799;DHT22;24973;47.178;15.316;2022-08-04T08:53:22;28.20;91.60
21799;DHT22;24973;47.178;15.316;2022-08-04T08:56:27;28.30;91.60
21799;DHT22;24973;47.178;15.316;2022-08-04T08:59:36;28.50;91.10
21799;DHT22;24973;47.178;15.316;2022-08-04T09:02:53;28.60;90.50
21799;DHT22;24973;47.178;15.316;2022-08-04T09:06:39;28.80;90.10
21799;DHT22;24973;47.178;15.316;2022-08-04T09:09:52;28.90;86.40
21799;DHT22;24973;47.178;15.316;2022-08-04T09:12:52;28.90;84.90
21799;DHT22;24973;47.178;15.316;2022-08-04T09:15:48;29.00;84.40
21799;DHT22;24973;47.178;15.316;2022-08-04T09:18:46;29.10;82.60
21799;DHT22;24973;47.178;15.316;2022-08-04T09:21:40;29.20;79.20
21799;DHT22;24973;47.178;15.316;2022-08-04T09:24:41;29.20;80.10
21799;DHT22;24973;47.178;15.316;2022-08-04T09:27:45;29.30;80.80
21799;DHT22;24973;47.178;15.316;2022-08-04T09:30:39;29.20;80.30
21799;DHT22;24973;47.178;15.316;2022-08-04T09:33:41;29.30;76.40
21799;DHT22;24973;47.178;15.316;2022-08-04T09:36:48;29.30;80.10
21799;DHT22;24973;47.178;15.316;2022-08-04T09:39:48;29.40;79.70
21799;DHT22;24973;47.178;15.316;2022-08-04T09:42:51;29.50;78.50
21799;DHT22;24973;47.178;15.316;2022-08-04T09:45:55;29.70;77.40
21799;DHT22;24973;47.178;15.316;2022-08-04T09:48:54;29.80;78.30
21799;DHT22;24973;47.178;15.316;2022-08-04T09:51:55;30.00;77.40
21799;DHT22;24973;47.178;15.316;2022-08-04T09:54:57;30.20;78.40
21799;DHT22;24973;47.178;15.316;2022-08-04T09:57:54;30.40;75.80
21799;DHT22;24973;47.178;15.316;2022-08-04T10:00:51;30.60;75.90
21799;DHT22;24973;47.178;15.316;2022-08-04T10:03:48;30.70;72.30
21799;DHT22;24973;47.178;15.316;2022-08-04T10:07:03;30.80;73.10
21799;DHT22;24973;47.178;15.316;2022-08-04T10:10:11;30.90;74.90
21799;DHT22;24973;47.178;15.316;2022-08-04T10:13:20;31.10;76.30
21799;DHT22;24973;47.178;15.316;2022-08-04T10:16:27;31.20;73.80
21799;DHT22;24973;47.178;15.316;2022-08-04T10:19:26;31.40;74.00
21799;DHT22;24973;47.178;15.316;2022-08-04T10:22:20;31.60;73.90
21799;DHT22;24973;47.178;15.316;2022-08-04T10:25:24;31.90;73.10
21799;DHT22;24973;47.178;15.316;2022-08-04T10:28:21;32.10;72.40
21799;DHT22;24973;47.178;15.316;2022-08-04T10:31:18;32.20;70.10
21799;DHT22;24973;47.178;15.316;2022-08-04T10:34:13;32.10;67.90
21799;DHT22;24973;47.178;15.316;2022-08-04T10:37:15;32.00;70.70
21799;DHT22;24973;47.178;15.316;2022-08-04T10:40:13;32.00;70.40
21799;DHT22;24973;47.178;15.316;2022-08-04T10:43:38;32.20;68.10
21799;DHT22;24973;47.178;15.316;2022-08-04T10:46:33;32.30;66.40
21799;DHT22;24973;47.178;15.316;2022-08-04T10:49:33;32.40;67.00
21799;DHT22;24973;47.178;15.316;2022-08-04T10:52:30;32.00;65.30
21799;DHT22;24973;47.178;15.316;2022-08-04T10:55:29;31.80;66.30
21799;DHT22;24973;47.178;15.316;2022-08-04T10:58:23;31.50;65.00
21799;DHT22;24973;47.178;15.316;2022-08-04T11:01:18;31.70;66.80
21799;DHT22;24973;47.178;15.316;2022-08-04T11:04:16;32.00;67.90
21799;DHT22;24973;47.178;15.316;2022-08-04T11:07:18;32.40;68.30
21799;DHT22;24973;47.178;15.316;2022-08-04T11:10:08;32.70;67.90
21799;DHT22;24973;47.178;15.316;2022-08-04T11:13:01;32.90;66.90
21799;DHT22;24973;47.178;15.316;2022-08-04T11:15:54;33.20;65.50
21799;DHT22;24973;47.178;15.316;2022-08-04T11:18:48;33.40;65.30
21799;DHT22;24973;47.178;15.316;2022-08-04T11:21:48;33.70;65.90
21799;DHT22;24973;47.178;15.316;2022-08-04T11:24:44;33.90;60.90
21799;DHT22;24973;47.178;15.316;2022-08-04T11:27:42;34.00;61.50
21799;DHT22;24973;47.178;15.316;2022-08-04T11:30:42;34.00;60.50
21799;DHT22;24973;47.178;15.316;2022-08-04T11:33:39;33.80;59.70
21799;DHT22;24973;47.178;15.316;2022-08-04T11:36:37;34.10;62.80
21799;DHT22;24973;47.178;15.316;2022-08-04T11:39:32;34.20;60.30
21799;DHT22;24973;47.178;15.316;2022-08-04T11:42:26;34.30;61.60
21799;DHT22;24973;47.178;15.316;2022-08-04T11:45:18;34.60;61.60
21799;DHT22;24973;47.178;15.316;2022-08-04T11:48:16;34.90;61.40
21799;DHT22;24973;47.178;15.316;2022-08-04T11:51:07;35.20;61.40
21799;DHT22;24973;47.178;15.316;2022-08-04T11:53:57;35.60;61.80
21799;DHT22;24973;47.178;15.316;2022-08-04T11:56:46;35.50;59.70
21799;DHT22;24973;47.178;15.316;2022-08-04T11:59:36;36.20;59.90
21799;DHT22;24973;47.178;15.316;2022-08-04T12:02:39;36.10;58.20
21799;DHT22;24973;47.178;15.316;2022-08-04T12:05:48;36.10;57.20
21799;DHT22;24973;47.178;15.316;2022-08-04T12:08:59;36.10;57.90
21799;DHT22;24973;47.178;15.316;2022-08-04T12:12:01;36.20;58.10
21799;DHT22;24973;47.178;15.316;2022-08-04T12:15:02;36.40;57.40
21799;DHT22;24973;47.178;15.316;2022-08-04T12:18:06;36.50;55.70
21799;DHT22;24973;47.178;15.316;2022-08-04T12:21:04;36.70;57.00
21799;DHT22;24973;47.178;15.316;2022-08-04T12:23:59;36.90;56.90
21799;DHT22;24973;47.178;15.316;2022-08-04T12:26:52;37.10;55.80
21799;DHT22;24973;47.178;15.316;2022-08-04T12:29:45;37.30;54.40
21799;DHT22;24973;47.178;15.316;2022-08-04T12:32:38;37.20;53.60
21799;DHT22;24973;47.178;15.316;2022-08-04T12:35:37;37.20;54.00
21799;DHT22;24973;47.178;15.316;2022-08-04T12:38:32;36.80;53.40
21799;DHT22;24973;47.178;15.316;2022-08-04T12:41:24;36.70;53.70
21799;DHT22;24973;47.178;15.316;2022-08-04T12:44:16;36.60;53.10
21799;DHT22;24973;47.178;15.316;2022-08-04T12:47:07;36.70;54.60
21799;DHT22;24973;47.178;15.316;2022-08-04T12:50:00;36.80;54.70
21799;DHT22;24973;47.178;15.316;2022-08-04T12:52:53;36.90;54.30
21799;DHT22;24973;47.178;15.316;2022-08-04T12:55:49;36.60;53.60
21799;DHT22;24973;47.178;15.316;2022-08-04T12:58:41;36.60;53.40
21799;DHT22;24973;47.178;15.316;2022-08-04T13:01:31;36.40;52.50
21799;DHT22;24973;47.178;15.316;2022-08-04T13:04:22;36.20;52.20
21799;DHT22;24973;47.178;15.316;2022-08-04T13:07:15;36.20;53.00
21799;DHT22;24973;47.178;15.316;2022-08-04T13:10:11;36.50;53.40
21799;DHT22;24973;47.178;15.316;2022-08-04T13:13:02;36.70;53.40
21799;DHT22;24973;47.178;15.316;2022-08-04T13:15:56;36.90;53.50
21799;DHT22;24973;47.178;15.316;2022-08-04T13:18:48;37.20;53.60
21799;DHT22;24973;47.178;15.316;2022-08-04T13:21:43;37.70;54.70
21799;DHT22;24973;47.178;15.316;2022-08-04T13:24:34;38.20;53.20
21799;DHT22;24973;47.178;15.316;2022-08-04T13:27:26;38.60;53.00
21799;DHT22;24973;47.178;15.316;2022-08-04T13:30:18;38.80;51.60
21799;DHT22;24973;47.178;15.316;2022-08-04T13:33:08;39.00;51.70
21799;DHT22;24973;47.178;15.316;2022-08-04T13:35:58;39.00;51.10
21799;DHT22;24973;47.178;15.316;2022-08-04T13:38:49;39.10;52.10
21799;DHT22;24973;47.178;15.316;2022-08-04T13:41:44;38.80;49.70
21799;DHT22;24973;47.178;15.316;2022-08-04T13:44:36;38.50;49.70
21799;DHT22;24973;47.178;15.316;2022-08-04T13:47:30;38.30;49.20
21799;DHT22;24973;47.178;15.316;2022-08-04T13:50:22;38.30;50.10
21799;DHT22;24973;47.178;15.316;2022-08-04T13:53:16;38.30;50.90
21799;DHT22;24973;47.178;15.316;2022-08-04T13:56:07;38.40;50.20
21799;DHT22;24973;47.178;15.316;2022-08-04T13:58:59;38.20;48.50
21799;DHT22;24973;47.178;15.316;2022-08-04T14:01:58;38.00;50.50
21799;DHT22;24973;47.178;15.316;2022-08-04T14:04:54;38.10;51.70
21799;DHT22;24973;47.178;15.316;2022-08-04T14:07:46;38.40;52.00
21799;DHT22;24973;47.178;15.316;2022-08-04T14:10:38;38.60;50.00
21799;DHT22;24973;47.178;15.316;2022-08-04T14:13:29;38.90;50.50
21799;DHT22;24973;47.178;15.316;2022-08-04T14:16:20;39.00;49.80
21799;DHT22;24973;47.178;15.316;2022-08-04T14:19:09;39.00;50.50
21799;DHT22;24973;47.178;15.316;2022-08-04T14:21:59;39.10;50.70
21799;DHT22;24973;47.178;15.316;2022-08-04T14:24:54;39.40;50.50
21799;DHT22;24973;47.178;15.316;2022-08-04T14:27:47;39.50;50.20
21799;DHT22;24973;47.178;15.316;2022-08-04T14:30:37;39.60;49.90
21799;DHT22;24973;47.178;15.316;2022-08-04T14:33:35;39.70;49.30
21799;DHT22;24973;47.178;15.316;2022-08-04T14:36:25;39.90;49.10
21799;DHT22;24973;47.178;15.316;2022-08-04T14:39:15;39.90;48.80
21799;DHT22;24973;47.178;15.316;2022-08-04T14:42:05;40.00;49.60
21799;DHT22;24973;47.178;15.316;2022-08-04T14:44:55;40.20;48.50
21799;DHT22;24973;47.178;15.316;2022-08-04T14:47:47;40.30;48.40
21799;DHT22;24973;47.178;15.316;2022-08-04T14:50:38;40.50;48.10
21799;DHT22;24973;47.178;15.316;2022-08-04T14:53:27;40.50;47.40
21799;DHT22;24973;47.178;15.316;2022-08-04T14:56:18;40.50;48.70
21799;DHT22;24973;47.178;15.316;2022-08-04T14:59:17;40.50;47.30
21799;DHT22;24973;47.178;15.316;2022-08-04T15:02:07;41.30;47.60
21799;DHT22;24973;47.178;15.316;2022-08-04T15:04:56;39.80;47.20
21799;DHT22;24973;47.178;15.316;2022-08-04T15:07:45;39.70;48.30
21799;DHT22;24973;47.178;15.316;2022-08-04T15:10:34;39.80;48.40
21799;DHT22;24973;47.178;15.316;2022-08-04T15:13:25;39.90;47.40
21799;DHT22;24973;47.178;15.316;2022-08-04T15:16:14;40.00;47.90
21799;DHT22;24973;47.178;15.316;2022-08-04T15:19:03;40.20;47.90
21799;DHT22;24973;47.178;15.316;2022-08-04T15:21:55;40.40;47.60
21799;DHT22;24973;47.178;15.316;2022-08-04T15:24:44;40.60;47.50
21799;DHT22;24973;47.178;15.316;2022-08-04T15:27:35;41.00;47.20
21799;DHT22;24973;47.178;15.316;2022-08-04T15:30:28;41.20;46.80
21799;DHT22;24973;47.178;15.316;2022-08-04T15:33:18;41.30;46.40
21799;DHT22;24973;47.178;15.316;2022-08-04T15:36:14;41.60;46.90
21799;DHT22;24973;47.178;15.316;2022-08-04T15:39:14;41.80;46.40
21799;DHT22;24973;47.178;15.316;2022-08-04T15:45:20;42.20;45.50
21799;DHT22;24973;47.178;15.316;2022-08-04T15:48:32;42.30;45.50
21799;DHT22;24973;47.178;15.316;2022-08-04T15:51:25;42.30;44.90
21799;DHT22;24973;47.178;15.316;2022-08-04T15:54:21;42.40;45.20
21799;DHT22;24973;47.178;15.316;2022-08-04T15:57:12;42.30;45.20
21799;DHT22;24973;47.178;15.316;2022-08-04T16:00:03;42.30;44.80
21799;DHT22;24973;47.178;15.316;2022-08-04T16:02:55;42.50;45.30
21799;DHT22;24973;47.178;15.316;2022-08-04T16:05:46;42.60;45.10
21799;DHT22;24973;47.178;15.316;2022-08-04T16:08:57;42.60;44.70
21799;DHT22;24973;47.178;15.316;2022-08-04T16:11:47;42.60;44.60
21799;DHT22;24973;47.178;15.316;2022-08-04T16:14:35;42.30;44.10
21799;DHT22;24973;47.178;15.316;2022-08-04T16:17:24;40.90;44.00
21799;DHT22;24973;47.178;15.316;2022-08-04T16:20:15;42.10;44.80
21799;DHT22;24973;47.178;15.316;2022-08-04T16:23:20;42.00;44.90
21799;DHT22;24973;47.178;15.316;2022-08-04T16:26:51;41.60;45.40
21799;DHT22;24973;47.178;15.316;2022-08-04T16:29:43;40.80;45.80
21799;DHT22;24973;47.178;15.316;2022-08-04T16:32:42;39.90;46.50
21799;DHT22;24973;47.178;15.316;2022-08-04T16:35:33;38.80;47.30
21799;DHT22;24973;47.178;15.316;2022-08-04T16:38:29;37.80;48.30
21799;DHT22;24973;47.178;15.316;2022-08-04T16:41:37;36.90;49.30
21799;DHT22;24973;47.178;15.316;2022-08-04T16:44:30;36.00;50.50
21799;DHT22;24973;47.178;15.316;2022-08-04T16:48:03;35.20;51.60
21799;DHT22;24973;47.178;15.316;2022-08-04T16:50:57;34.40;53.40
21799;DHT22;24973;47.178;15.316;2022-08-04T16:54:08;33.80;54.10
21799;DHT22;24973;47.178;15.316;2022-08-04T16:56:57;33.30;56.10
21799;DHT22;24973;47.178;15.316;2022-08-04T16:59:50;32.80;56.60
21799;DHT22;24973;47.178;15.316;2022-08-04T17:02:39;32.40;57.40
21799;DHT22;24973;47.178;15.316;2022-08-04T17:05:29;32.00;58.60
21799;DHT22;24973;47.178;15.316;2022-08-04T17:08:18;31.60;59.10
21799;DHT22;24973;47.178;15.316;2022-08-04T17:11:17;31.40;61.00
21799;DHT22;24973;47.178;15.316;2022-08-04T17:14:06;31.10;61.10
21799;DHT22;24973;47.178;15.316;2022-08-04T17:16:57;30.90;62.90
21799;DHT22;24973;47.178;15.316;2022-08-04T17:19:50;30.90;64.10
21799;DHT22;24973;47.178;15.316;2022-08-04T17:22:40;30.50;64.90
21799;DHT22;24973;47.178;15.316;2022-08-04T17:25:29;30.20;66.50
21799;DHT22;24973;47.178;15.316;2022-08-04T17:28:20;30.10;65.90
21799;DHT22;24973;47.178;15.316;2022-08-04T17:31:10;29.90;66.30
21799;DHT22;24973;47.178;15.316;2022-08-04T17:34:06;29.80;66.50
21799;DHT22;24973;47.178;15.316;2022-08-04T17:37:03;29.60;67.80
21799;DHT22;24973;47.178;15.316;2022-08-04T17:40:12;29.40;69.00
21799;DHT22;24973;47.178;15.316;2022-08-04T17:43:05;29.10;69.70
21799;DHT22;24973;47.178;15.316;2022-08-04T17:46:15;28.80;72.50
21799;DHT22;24973;47.178;15.316;2022-08-04T17:49:20;28.40;73.30
21799;DHT22;24973;47.178;15.316;2022-08-04T17:52:19;28.10;75.40
21799;DHT22;24973;47.178;15.316;2022-08-04T17:55:17;27.70;76.50
21799;DHT22;24973;47.178;15.316;2022-08-04T18:01:44;25.30;77.60
21799;DHT22;24973;47.178;15.316;2022-08-04T18:12:46;26.60;85.50
21799;DHT22;24973;47.178;15.316;2022-08-04T18:16:33;24.90;84.60
21799;DHT22;24973;47.178;15.316;2022-08-04T18:19:18;26.30;89.30
21799;DHT22;24973;47.178;15.316;2022-08-04T18:23:08;24.60;88.10
21799;DHT22;24973;47.178;15.316;2022-08-04T18:41:49;25.10;91.80
21799;DHT22;24973;47.178;15.316;2022-08-04T18:48:17;25.40;92.80
21799;DHT22;24973;47.178;15.316;2022-08-04T18:51:20;25.40;94.00
21799;DHT22;24973;47.178;15.316;2022-08-04T18:54:16;25.30;93.90
21799;DHT22;24973;47.178;15.316;2022-08-04T18:57:21;25.50;94.50
21799;DHT22;24973;47.178;15.316;2022-08-04T19:00:37;25.90;96.70
21799;DHT22;24973;47.178;15.316;2022-08-04T19:03:27;25.30;97.50
21799;DHT22;24973;47.178;15.316;2022-08-04T19:06:16;25.10;94.80
21799;DHT22;24973;47.178;15.316;2022-08-04T19:09:06;25.00;95.30
21799;DHT22;24973;47.178;15.316;2022-08-04T19:12:10;25.00;95.20
21799;DHT22;24973;47.178;15.316;2022-08-04T19:15:08;23.10;95.20
21799;DHT22;24973;47.178;15.316;2022-08-04T19:17:57;25.00;95.40
21799;DHT22;24973;47.178;15.316;2022-08-04T19:20:50;25.10;96.10
21799;DHT22;24973;47.178;15.316;2022-08-04T19:23:47;24.90;96.10